sensor_id;sensor_type;location;lat;lon;timestamp;pressure;altitude;pressure_sealevel;temperature
71649;BMP180;59492;45.638;11.714;2022-07-18T00:00:05;101680.60;;;28.20
71649;BMP180;59492;45.638;11.714;2022-07-18T00:02:32;101680.20;;;28.20
71649;BMP180;59492;45.638;11.714;2022-07-18T00:04:57;101681.00;;;28.20
71649;BMP180;59492;45.638;11.714;2022-07-18T00:07:25;101679.40;;;28.20
71649;BMP180;59492;45.638;11.714;2022-07-18T00:09:52;101679.20;;;28.20
71649;BMP180;59492;45.638;11.714;2022-07-18T00:12:19;101676.40;;;28.18
71649;BMP180;59492;45.638;11.714;2022-07-18T00:14:45;101671.60;;;28.18
71649;BMP180;59492;45.638;11.714;2022-07-18T00:17:10;101672.00;;;28.10
71649;BMP180;59492;45.638;11.714;2022-07-18T00:19:37;101675.40;;;28.10
71649;BMP180;59492;45.638;11.714;2022-07-18T00:22:03;101675.40;;;28.10
71649;BMP180;59492;45.638;11.714;2022-07-18T00:24:29;101674.40;;;28.10
71649;BMP180;59492;45.638;11.714;2022-07-18T00:26:54;101676.20;;;28.10
71649;BMP180;59492;45.638;11.714;2022-07-18T00:29:20;101676.60;;;28.10
71649;BMP180;59492;45.638;11.714;2022-07-18T00:31:45;101671.80;;;28.10
71649;BMP180;59492;45.638;11.714;2022-07-18T00:34:11;101673.40;;;28.08
71649;BMP180;59492;45.638;11.714;2022-07-18T00:36:37;101671.80;;;28.06
71649;BMP180;59492;45.638;11.714;2022-07-18T00:39:03;101673.80;;;28.04
71649;BMP180;59492;45.638;11.714;2022-07-18T00:41:29;101671.00;;;28.00
71649;BMP180;59492;45.638;11.714;2022-07-18T00:43:55;101668.40;;;28.00
71649;BMP180;59492;45.638;11.714;2022-07-18T00:46:26;101675.00;;;28.00
71649;BMP180;59492;45.638;11.714;2022-07-18T00:48:52;101672.00;;;28.00
71649;BMP180;59492;45.638;11.714;2022-07-18T00:51:20;101670.20;;;28.00
71649;BMP180;59492;45.638;11.714;2022-07-18T00:53:47;101664.40;;;28.00
71649;BMP180;59492;45.638;11.714;2022-07-18T00:56:18;101662.60;;;28.00
71649;BMP180;59492;45.638;11.714;2022-07-18T00:58:43;101659.40;;;27.98
71649;BMP180;59492;45.638;11.714;2022-07-18T01:01:09;101664.80;;;27.96
71649;BMP180;59492;45.638;11.714;2022-07-18T01:03:54;101661.40;;;27.90
71649;BMP180;59492;45.638;11.714;2022-07-18T01:06:21;101663.80;;;27.90
71649;BMP180;59492;45.638;11.714;2022-07-18T01:08:47;101661.80;;;27.90
71649;BMP180;59492;45.638;11.714;2022-07-18T01:11:13;101661.80;;;27.90
71649;BMP180;59492;45.638;11.714;2022-07-18T01:13:39;101662.60;;;27.90
71649;BMP180;59492;45.638;11.714;2022-07-18T01:16:06;101660.20;;;27.90
71649;BMP180;59492;45.638;11.714;2022-07-18T01:18:31;101660.20;;;27.90
71649;BMP180;59492;45.638;11.714;2022-07-18T01:20:57;101661.20;;;27.90
71649;BMP180;59492;45.638;11.714;2022-07-18T01:23:23;101662.00;;;27.90
71649;BMP180;59492;45.638;11.714;2022-07-18T01:25:49;101666.00;;;27.90
71649;BMP180;59492;45.638;11.714;2022-07-18T01:28:15;101665.60;;;27.88
71649;BMP180;59492;45.638;11.714;2022-07-18T01:30:41;101669.60;;;27.86
71649;BMP180;59492;45.638;11.714;2022-07-18T01:33:07;101668.40;;;27.84
71649;BMP180;59492;45.638;11.714;2022-07-18T01:35:32;101669.20;;;27.80
71649;BMP180;59492;45.638;11.714;2022-07-18T01:38:00;101668.80;;;27.84
71649;BMP180;59492;45.638;11.714;2022-07-18T01:40:27;101664.80;;;27.80
71649;BMP180;59492;45.638;11.714;2022-07-18T01:42:53;101661.60;;;27.80
71649;BMP180;59492;45.638;11.714;2022-07-18T01:45:19;101667.40;;;27.80
71649;BMP180;59492;45.638;11.714;2022-07-18T01:47:45;101671.60;;;27.80
71649;BMP180;59492;45.638;11.714;2022-07-18T01:50:13;101669.20;;;27.80
71649;BMP180;59492;45.638;11.714;2022-07-18T01:52:39;101663.20;;;27.80
71649;BMP180;59492;45.638;11.714;2022-07-18T01:55:07;101662.40;;;27.80
71649;BMP180;59492;45.638;11.714;2022-07-18T01:57:33;101666.60;;;27.80
71649;BMP180;59492;45.638;11.714;2022-07-18T01:59:59;101671.80;;;27.80
71649;BMP180;59492;45.638;11.714;2022-07-18T02:02:24;101677.60;;;27.80
71649;BMP180;59492;45.638;11.714;2022-07-18T02:04:50;101677.00;;;27.80
71649;BMP180;59492;45.638;11.714;2022-07-18T02:07:25;101672.20;;;27.72
71649;BMP180;59492;45.638;11.714;2022-07-18T02:09:51;101672.20;;;27.72
71649;BMP180;59492;45.638;11.714;2022-07-18T02:12:17;101672.20;;;27.72
71649;BMP180;59492;45.638;11.714;2022-07-18T02:14:42;101668.40;;;27.70
71649;BMP180;59492;45.638;11.714;2022-07-18T02:17:08;101667.40;;;27.70
71649;BMP180;59492;45.638;11.714;2022-07-18T02:19:33;101667.40;;;27.70
71649;BMP180;59492;45.638;11.714;2022-07-18T02:21:59;101667.60;;;27.70
71649;BMP180;59492;45.638;11.714;2022-07-18T02:24:25;101665.20;;;27.70
71649;BMP180;59492;45.638;11.714;2022-07-18T02:26:50;101665.60;;;27.70
71649;BMP180;59492;45.638;11.714;2022-07-18T02:29:16;101667.00;;;27.70
71649;BMP180;59492;45.638;11.714;2022-07-18T02:31:42;101661.20;;;27.70
71649;BMP180;59492;45.638;11.714;2022-07-18T02:34:07;101663.00;;;27.70
71649;BMP180;59492;45.638;11.714;2022-07-18T02:36:40;101660.60;;;27.70
71649;BMP180;59492;45.638;11.714;2022-07-18T02:39:06;101657.00;;;27.70
71649;BMP180;59492;45.638;11.714;2022-07-18T02:41:33;101656.20;;;27.70
71649;BMP180;59492;45.638;11.714;2022-07-18T02:43:59;101657.20;;;27.68
71649;BMP180;59492;45.638;11.714;2022-07-18T02:46:24;101658.00;;;27.66
71649;BMP180;59492;45.638;11.714;2022-07-18T02:48:50;101657.40;;;27.66
71649;BMP180;59492;45.638;11.714;2022-07-18T02:51:16;101658.20;;;27.66
71649;BMP180;59492;45.638;11.714;2022-07-18T02:53:42;101658.00;;;27.64
71649;BMP180;59492;45.638;11.714;2022-07-18T02:56:07;101660.00;;;27.60
71649;BMP180;59492;45.638;11.714;2022-07-18T02:58:33;101663.60;;;27.60
71649;BMP180;59492;45.638;11.714;2022-07-18T03:00:59;101663.00;;;27.60
71649;BMP180;59492;45.638;11.714;2022-07-18T03:03:24;101663.20;;;27.60
71649;BMP180;59492;45.638;11.714;2022-07-18T03:05:50;101663.00;;;27.60
71649;BMP180;59492;45.638;11.714;2022-07-18T03:08:16;101660.00;;;27.60
71649;BMP180;59492;45.638;11.714;2022-07-18T03:10:41;101655.60;;;27.60
71649;BMP180;59492;45.638;11.714;2022-07-18T03:13:07;101661.20;;;27.60
71649;BMP180;59492;45.638;11.714;2022-07-18T03:15:33;101665.60;;;27.60
71649;BMP180;59492;45.638;11.714;2022-07-18T03:17:59;101666.80;;;27.60
71649;BMP180;59492;45.638;11.714;2022-07-18T03:20:24;101667.40;;;27.60
71649;BMP180;59492;45.638;11.714;2022-07-18T03:22:50;101669.60;;;27.60
71649;BMP180;59492;45.638;11.714;2022-07-18T03:25:15;101673.80;;;27.60
71649;BMP180;59492;45.638;11.714;2022-07-18T03:27:41;101673.60;;;27.60
71649;BMP180;59492;45.638;11.714;2022-07-18T03:30:08;101674.80;;;27.60
71649;BMP180;59492;45.638;11.714;2022-07-18T03:32:41;101675.20;;;27.60
71649;BMP180;59492;45.638;11.714;2022-07-18T03:35:11;101671.60;;;27.56
71649;BMP180;59492;45.638;11.714;2022-07-18T03:37:36;101671.00;;;27.58
71649;BMP180;59492;45.638;11.714;2022-07-18T03:40:03;101671.20;;;27.58
71649;BMP180;59492;45.638;11.714;2022-07-18T03:42:29;101674.00;;;27.58
71649;BMP180;59492;45.638;11.714;2022-07-18T03:44:54;101675.00;;;27.54
71649;BMP180;59492;45.638;11.714;2022-07-18T03:47:21;101673.60;;;27.52
71649;BMP180;59492;45.638;11.714;2022-07-18T03:49:48;101670.60;;;27.52
71649;BMP180;59492;45.638;11.714;2022-07-18T03:52:16;101672.80;;;27.50
71649;BMP180;59492;45.638;11.714;2022-07-18T03:54:42;101676.40;;;27.50
71649;BMP180;59492;45.638;11.714;2022-07-18T03:57:07;101673.40;;;27.50
71649;BMP180;59492;45.638;11.714;2022-07-18T03:59:33;101673.20;;;27.50
71649;BMP180;59492;45.638;11.714;2022-07-18T04:02:01;101673.40;;;27.50
71649;BMP180;59492;45.638;11.714;2022-07-18T04:04:27;101674.60;;;27.50
71649;BMP180;59492;45.638;11.714;2022-07-18T04:06:53;101677.40;;;27.50
71649;BMP180;59492;45.638;11.714;2022-07-18T04:09:19;101678.20;;;27.50
71649;BMP180;59492;45.638;11.714;2022-07-18T04:11:44;101680.00;;;27.50
71649;BMP180;59492;45.638;11.714;2022-07-18T04:14:10;101680.60;;;27.50
71649;BMP180;59492;45.638;11.714;2022-07-18T04:16:36;101683.60;;;27.50
71649;BMP180;59492;45.638;11.714;2022-07-18T04:19:02;101682.40;;;27.50
71649;BMP180;59492;45.638;11.714;2022-07-18T04:21:27;101685.20;;;27.50
71649;BMP180;59492;45.638;11.714;2022-07-18T04:23:53;101687.20;;;27.50
71649;BMP180;59492;45.638;11.714;2022-07-18T04:26:18;101687.20;;;27.50
71649;BMP180;59492;45.638;11.714;2022-07-18T04:28:44;101689.00;;;27.50
71649;BMP180;59492;45.638;11.714;2022-07-18T04:31:10;101689.80;;;27.50
71649;BMP180;59492;45.638;11.714;2022-07-18T04:33:35;101689.40;;;27.50
71649;BMP180;59492;45.638;11.714;2022-07-18T04:36:01;101694.80;;;27.50
71649;BMP180;59492;45.638;11.714;2022-07-18T04:38:27;101698.40;;;27.50
71649;BMP180;59492;45.638;11.714;2022-07-18T04:40:56;101699.00;;;27.50
71649;BMP180;59492;45.638;11.714;2022-07-18T04:43:22;101697.00;;;27.50
71649;BMP180;59492;45.638;11.714;2022-07-18T04:45:48;101695.80;;;27.50
71649;BMP180;59492;45.638;11.714;2022-07-18T04:48:14;101698.40;;;27.50
71649;BMP180;59492;45.638;11.714;2022-07-18T04:50:40;101697.80;;;27.50
71649;BMP180;59492;45.638;11.714;2022-07-18T04:53:06;101699.40;;;27.50
71649;BMP180;59492;45.638;11.714;2022-07-18T04:55:33;101697.20;;;27.50
71649;BMP180;59492;45.638;11.714;2022-07-18T04:57:59;101703.60;;;27.50
71649;BMP180;59492;45.638;11.714;2022-07-18T05:00:26;101700.60;;;27.50
71649;BMP180;59492;45.638;11.714;2022-07-18T05:02:54;101702.40;;;27.50
71649;BMP180;59492;45.638;11.714;2022-07-18T05:05:22;101709.00;;;27.50
71649;BMP180;59492;45.638;11.714;2022-07-18T05:07:49;101709.20;;;27.50
71649;BMP180;59492;45.638;11.714;2022-07-18T05:10:16;101715.00;;;27.50
71649;BMP180;59492;45.638;11.714;2022-07-18T05:12:45;101715.00;;;27.50
71649;BMP180;59492;45.638;11.714;2022-07-18T05:15:14;101712.80;;;27.50
71649;BMP180;59492;45.638;11.714;2022-07-18T05:17:41;101715.20;;;27.50
71649;BMP180;59492;45.638;11.714;2022-07-18T05:20:09;101709.80;;;27.50
71649;BMP180;59492;45.638;11.714;2022-07-18T05:22:36;101710.20;;;27.52
71649;BMP180;59492;45.638;11.714;2022-07-18T05:25:04;101711.20;;;27.50
71649;BMP180;59492;45.638;11.714;2022-07-18T05:27:30;101711.40;;;27.52
71649;BMP180;59492;45.638;11.714;2022-07-18T05:29:56;101711.20;;;27.52
71649;BMP180;59492;45.638;11.714;2022-07-18T05:32:25;101712.20;;;27.56
71649;BMP180;59492;45.638;11.714;2022-07-18T05:34:51;101711.40;;;27.58
71649;BMP180;59492;45.638;11.714;2022-07-18T05:37:16;101711.40;;;27.60
71649;BMP180;59492;45.638;11.714;2022-07-18T05:39:42;101711.20;;;27.60
71649;BMP180;59492;45.638;11.714;2022-07-18T05:42:08;101709.40;;;27.60
71649;BMP180;59492;45.638;11.714;2022-07-18T05:44:33;101706.00;;;27.60
71649;BMP180;59492;45.638;11.714;2022-07-18T05:46:59;101705.20;;;27.60
71649;BMP180;59492;45.638;11.714;2022-07-18T05:49:24;101702.60;;;27.60
71649;BMP180;59492;45.638;11.714;2022-07-18T05:51:50;101704.60;;;27.60
71649;BMP180;59492;45.638;11.714;2022-07-18T05:54:21;101704.20;;;27.60
71649;BMP180;59492;45.638;11.714;2022-07-18T05:56:53;101709.20;;;27.60
71649;BMP180;59492;45.638;11.714;2022-07-18T05:59:22;101710.40;;;27.60
71649;BMP180;59492;45.638;11.714;2022-07-18T06:01:50;101712.60;;;27.60
71649;BMP180;59492;45.638;11.714;2022-07-18T06:04:16;101713.80;;;27.60
71649;BMP180;59492;45.638;11.714;2022-07-18T06:06:46;101717.80;;;27.64
71649;BMP180;59492;45.638;11.714;2022-07-18T06:09:38;101722.60;;;27.60
71649;BMP180;59492;45.638;11.714;2022-07-18T06:13:17;101728.60;;;27.60
71649;BMP180;59492;45.638;11.714;2022-07-18T06:16:49;101722.00;;;27.60
71649;BMP180;59492;45.638;11.714;2022-07-18T06:20:17;101720.80;;;27.60
71649;BMP180;59492;45.638;11.714;2022-07-18T06:22:59;101725.60;;;27.60
71649;BMP180;59492;45.638;11.714;2022-07-18T06:25:26;101724.60;;;27.70
71649;BMP180;59492;45.638;11.714;2022-07-18T06:27:51;101730.00;;;27.70
71649;BMP180;59492;45.638;11.714;2022-07-18T06:30:17;101733.20;;;27.70
71649;BMP180;59492;45.638;11.714;2022-07-18T06:32:42;101735.60;;;27.74
71649;BMP180;59492;45.638;11.714;2022-07-18T06:35:08;101736.40;;;27.76
71649;BMP180;59492;45.638;11.714;2022-07-18T06:37:34;101737.00;;;27.80
71649;BMP180;59492;45.638;11.714;2022-07-18T06:40:00;101735.80;;;27.80
71649;BMP180;59492;45.638;11.714;2022-07-18T06:42:26;101735.20;;;27.80
71649;BMP180;59492;45.638;11.714;2022-07-18T06:44:51;101733.20;;;27.80
71649;BMP180;59492;45.638;11.714;2022-07-18T06:47:17;101731.40;;;27.80
71649;BMP180;59492;45.638;11.714;2022-07-18T06:49:42;101726.80;;;27.80
71649;BMP180;59492;45.638;11.714;2022-07-18T06:52:08;101729.20;;;27.84
71649;BMP180;59492;45.638;11.714;2022-07-18T06:54:37;101732.20;;;27.86
71649;BMP180;59492;45.638;11.714;2022-07-18T06:57:04;101728.80;;;27.90
71649;BMP180;59492;45.638;11.714;2022-07-18T06:59:32;101730.60;;;27.90
71649;BMP180;59492;45.638;11.714;2022-07-18T07:01:58;101733.80;;;27.90
71649;BMP180;59492;45.638;11.714;2022-07-18T07:04:24;101735.00;;;27.90
71649;BMP180;59492;45.638;11.714;2022-07-18T07:06:50;101737.20;;;27.90
71649;BMP180;59492;45.638;11.714;2022-07-18T07:09:15;101740.60;;;27.90
71649;BMP180;59492;45.638;11.714;2022-07-18T07:11:41;101744.20;;;27.90
71649;BMP180;59492;45.638;11.714;2022-07-18T07:14:07;101746.00;;;27.94
71649;BMP180;59492;45.638;11.714;2022-07-18T07:16:32;101745.20;;;27.98
71649;BMP180;59492;45.638;11.714;2022-07-18T07:18:58;101741.20;;;28.00
71649;BMP180;59492;45.638;11.714;2022-07-18T07:21:24;101741.20;;;28.00
71649;BMP180;59492;45.638;11.714;2022-07-18T07:23:49;101740.80;;;28.00
71649;BMP180;59492;45.638;11.714;2022-07-18T07:26:15;101742.20;;;28.00
71649;BMP180;59492;45.638;11.714;2022-07-18T07:28:40;101742.80;;;28.00
71649;BMP180;59492;45.638;11.714;2022-07-18T07:31:07;101739.40;;;28.00
71649;BMP180;59492;45.638;11.714;2022-07-18T07:33:33;101737.60;;;28.04
71649;BMP180;59492;45.638;11.714;2022-07-18T07:36:00;101737.60;;;28.08
71649;BMP180;59492;45.638;11.714;2022-07-18T07:38:25;101735.00;;;28.10
71649;BMP180;59492;45.638;11.714;2022-07-18T07:40:54;101734.40;;;28.10
71649;BMP180;59492;45.638;11.714;2022-07-18T07:43:20;101733.20;;;28.10
71649;BMP180;59492;45.638;11.714;2022-07-18T07:45:48;101733.80;;;28.10
71649;BMP180;59492;45.638;11.714;2022-07-18T07:48:18;101736.00;;;28.14
71649;BMP180;59492;45.638;11.714;2022-07-18T07:50:44;101739.60;;;28.20
71649;BMP180;59492;45.638;11.714;2022-07-18T07:53:09;101738.40;;;28.20
71649;BMP180;59492;45.638;11.714;2022-07-18T07:55:35;101739.60;;;28.20
71649;BMP180;59492;45.638;11.714;2022-07-18T07:58:01;101738.40;;;28.20
71649;BMP180;59492;45.638;11.714;2022-07-18T08:00:28;101736.60;;;28.20
71649;BMP180;59492;45.638;11.714;2022-07-18T08:02:55;101735.00;;;28.20
71649;BMP180;59492;45.638;11.714;2022-07-18T08:05:22;101733.40;;;28.20
71649;BMP180;59492;45.638;11.714;2022-07-18T08:07:47;101734.40;;;28.20
71649;BMP180;59492;45.638;11.714;2022-07-18T08:10:14;101730.20;;;28.20
71649;BMP180;59492;45.638;11.714;2022-07-18T08:12:40;101729.80;;;28.22
71649;BMP180;59492;45.638;11.714;2022-07-18T08:15:06;101727.40;;;28.20
71649;BMP180;59492;45.638;11.714;2022-07-18T08:17:32;101724.60;;;28.26
71649;BMP180;59492;45.638;11.714;2022-07-18T08:19:57;101725.00;;;28.28
71649;BMP180;59492;45.638;11.714;2022-07-18T08:22:23;101730.40;;;28.30
71649;BMP180;59492;45.638;11.714;2022-07-18T08:24:49;101731.60;;;28.30
71649;BMP180;59492;45.638;11.714;2022-07-18T08:27:15;101731.40;;;28.30
71649;BMP180;59492;45.638;11.714;2022-07-18T08:29:40;101729.80;;;28.30
71649;BMP180;59492;45.638;11.714;2022-07-18T08:32:06;101727.80;;;28.30
71649;BMP180;59492;45.638;11.714;2022-07-18T08:34:32;101725.20;;;28.30
71649;BMP180;59492;45.638;11.714;2022-07-18T08:36:57;101726.20;;;28.30
71649;BMP180;59492;45.638;11.714;2022-07-18T08:39:23;101724.00;;;28.30
71649;BMP180;59492;45.638;11.714;2022-07-18T08:41:50;101721.60;;;28.34
71649;BMP180;59492;45.638;11.714;2022-07-18T08:44:17;101725.20;;;28.34
71649;BMP180;59492;45.638;11.714;2022-07-18T08:46:51;101725.80;;;28.40
71649;BMP180;59492;45.638;11.714;2022-07-18T08:49:19;101724.40;;;28.34
71649;BMP180;59492;45.638;11.714;2022-07-18T08:51:46;101726.60;;;28.40
71649;BMP180;59492;45.638;11.714;2022-07-18T08:54:12;101725.00;;;28.40
71649;BMP180;59492;45.638;11.714;2022-07-18T08:56:38;101727.00;;;28.40
71649;BMP180;59492;45.638;11.714;2022-07-18T08:59:04;101731.40;;;28.40
71649;BMP180;59492;45.638;11.714;2022-07-18T09:01:31;101727.40;;;28.40
71649;BMP180;59492;45.638;11.714;2022-07-18T09:03:58;101729.40;;;28.40
71649;BMP180;59492;45.638;11.714;2022-07-18T09:06:47;101723.80;;;28.40
71649;BMP180;59492;45.638;11.714;2022-07-18T09:09:17;101718.00;;;28.40
71649;BMP180;59492;45.638;11.714;2022-07-18T09:11:51;101717.20;;;28.40
71649;BMP180;59492;45.638;11.714;2022-07-18T09:14:38;101716.20;;;28.40
71649;BMP180;59492;45.638;11.714;2022-07-18T09:17:12;101717.80;;;28.40
71649;BMP180;59492;45.638;11.714;2022-07-18T09:19:40;101715.60;;;28.44
71649;BMP180;59492;45.638;11.714;2022-07-18T09:25:04;101716.60;;;28.48
71649;BMP180;59492;45.638;11.714;2022-07-18T09:27:35;101714.20;;;28.40
71649;BMP180;59492;45.638;11.714;2022-07-18T09:32:34;101708.80;;;28.50
71649;BMP180;59492;45.638;11.714;2022-07-18T09:35:11;101711.20;;;28.50
71649;BMP180;59492;45.638;11.714;2022-07-18T09:37:37;101706.40;;;28.50
71649;BMP180;59492;45.638;11.714;2022-07-18T09:40:22;101704.00;;;28.50
71649;BMP180;59492;45.638;11.714;2022-07-18T09:42:57;101702.60;;;28.50
71649;BMP180;59492;45.638;11.714;2022-07-18T09:45:34;101705.20;;;28.50
71649;BMP180;59492;45.638;11.714;2022-07-18T09:48:03;101707.60;;;28.50
71649;BMP180;59492;45.638;11.714;2022-07-18T09:50:39;101707.40;;;28.50
71649;BMP180;59492;45.638;11.714;2022-07-18T09:53:21;101707.00;;;28.50
71649;BMP180;59492;45.638;11.714;2022-07-18T09:55:53;101706.60;;;28.50
71649;BMP180;59492;45.638;11.714;2022-07-18T09:58:25;101709.40;;;28.50
71649;BMP180;59492;45.638;11.714;2022-07-18T10:00:53;101707.40;;;28.52
71649;BMP180;59492;45.638;11.714;2022-07-18T10:03:20;101703.80;;;28.56
71649;BMP180;59492;45.638;11.714;2022-07-18T10:05:47;101705.20;;;28.60
71649;BMP180;59492;45.638;11.714;2022-07-18T10:08:15;101698.60;;;28.60
71649;BMP180;59492;45.638;11.714;2022-07-18T10:10:43;101701.00;;;28.60
71649;BMP180;59492;45.638;11.714;2022-07-18T10:13:10;101700.80;;;28.60
71649;BMP180;59492;45.638;11.714;2022-07-18T10:15:38;101703.00;;;28.60
71649;BMP180;59492;45.638;11.714;2022-07-18T10:18:06;101704.00;;;28.60
71649;BMP180;59492;45.638;11.714;2022-07-18T10:20:37;101698.60;;;28.60
71649;BMP180;59492;45.638;11.714;2022-07-18T10:25:41;101690.40;;;28.60
71649;BMP180;59492;45.638;11.714;2022-07-18T10:28:10;101691.80;;;28.60
71649;BMP180;59492;45.638;11.714;2022-07-18T10:30:44;101693.60;;;28.60
71649;BMP180;59492;45.638;11.714;2022-07-18T10:33:46;101690.60;;;28.60
71649;BMP180;59492;45.638;11.714;2022-07-18T10:36:17;101689.60;;;28.50
71649;BMP180;59492;45.638;11.714;2022-07-18T10:39:02;101685.00;;;28.60
71649;BMP180;59492;45.638;11.714;2022-07-18T10:41:28;101687.80;;;28.56
71649;BMP180;59492;45.638;11.714;2022-07-18T10:43:58;101685.60;;;28.60
71649;BMP180;59492;45.638;11.714;2022-07-18T10:47:06;101686.80;;;28.60
71649;BMP180;59492;45.638;11.714;2022-07-18T10:57:42;101674.00;;;28.56
71649;BMP180;59492;45.638;11.714;2022-07-18T11:00:38;101670.60;;;28.50
71649;BMP180;59492;45.638;11.714;2022-07-18T11:03:07;101664.80;;;28.54
71649;BMP180;59492;45.638;11.714;2022-07-18T11:05:46;101664.00;;;28.56
71649;BMP180;59492;45.638;11.714;2022-07-18T11:08:18;101659.20;;;28.54
71649;BMP180;59492;45.638;11.714;2022-07-18T11:13:30;101660.40;;;28.50
71649;BMP180;59492;45.638;11.714;2022-07-18T11:19:14;101651.20;;;28.52
71649;BMP180;59492;45.638;11.714;2022-07-18T11:21:25;101647.00;;;28.50
71649;BMP180;59492;45.638;11.714;2022-07-18T11:26:28;101640.00;;;28.50
71649;BMP180;59492;45.638;11.714;2022-07-18T11:29:05;101635.20;;;28.50
71649;BMP180;59492;45.638;11.714;2022-07-18T11:31:42;101637.20;;;28.50
71649;BMP180;59492;45.638;11.714;2022-07-18T11:34:08;101634.20;;;28.50
71649;BMP180;59492;45.638;11.714;2022-07-18T11:36:33;101631.40;;;28.50
71649;BMP180;59492;45.638;11.714;2022-07-18T11:39:02;101627.00;;;28.50
71649;BMP180;59492;45.638;11.714;2022-07-18T11:41:29;101622.60;;;28.50
71649;BMP180;59492;45.638;11.714;2022-07-18T11:43:56;101620.40;;;28.50
71649;BMP180;59492;45.638;11.714;2022-07-18T11:46:24;101620.60;;;28.50
71649;BMP180;59492;45.638;11.714;2022-07-18T11:48:59;101618.60;;;28.50
71649;BMP180;59492;45.638;11.714;2022-07-18T11:51:25;101617.40;;;28.48
71649;BMP180;59492;45.638;11.714;2022-07-18T11:53:52;101609.80;;;28.50
71649;BMP180;59492;45.638;11.714;2022-07-18T11:56:20;101612.40;;;28.48
71649;BMP180;59492;45.638;11.714;2022-07-18T11:58:48;101605.80;;;28.50
71649;BMP180;59492;45.638;11.714;2022-07-18T12:01:14;101610.40;;;28.48
71649;BMP180;59492;45.638;11.714;2022-07-18T12:03:50;101600.80;;;28.46
71649;BMP180;59492;45.638;11.714;2022-07-18T12:06:23;101601.00;;;28.42
71649;BMP180;59492;45.638;11.714;2022-07-18T12:08:52;101602.40;;;28.42
71649;BMP180;59492;45.638;11.714;2022-07-18T12:18:55;101587.20;;;28.38
71649;BMP180;59492;45.638;11.714;2022-07-18T12:21:37;101583.60;;;28.38
71649;BMP180;59492;45.638;11.714;2022-07-18T12:24:34;101579.80;;;28.34
71649;BMP180;59492;45.638;11.714;2022-07-18T12:35:30;101570.20;;;28.30
71649;BMP180;59492;45.638;11.714;2022-07-18T12:38:00;101568.80;;;28.30
71649;BMP180;59492;45.638;11.714;2022-07-18T12:40:57;101565.20;;;28.30
71649;BMP180;59492;45.638;11.714;2022-07-18T12:43:34;101560.60;;;28.30
71649;BMP180;59492;45.638;11.714;2022-07-18T12:46:12;101555.80;;;28.30
71649;BMP180;59492;45.638;11.714;2022-07-18T12:48:42;101557.60;;;28.30
71649;BMP180;59492;45.638;11.714;2022-07-18T12:51:31;101560.00;;;28.30
71649;BMP180;59492;45.638;11.714;2022-07-18T12:54:05;101555.40;;;28.30
71649;BMP180;59492;45.638;11.714;2022-07-18T12:56:31;101556.60;;;28.30
71649;BMP180;59492;45.638;11.714;2022-07-18T12:59:04;101551.60;;;28.30
71649;BMP180;59492;45.638;11.714;2022-07-18T13:01:36;101548.60;;;28.30
71649;BMP180;59492;45.638;11.714;2022-07-18T13:04:05;101546.60;;;28.30
71649;BMP180;59492;45.638;11.714;2022-07-18T13:06:35;101548.00;;;28.30
71649;BMP180;59492;45.638;11.714;2022-07-18T13:09:08;101542.60;;;28.30
71649;BMP180;59492;45.638;11.714;2022-07-18T13:11:36;101543.00;;;28.30
71649;BMP180;59492;45.638;11.714;2022-07-18T13:14:04;101534.00;;;28.30
71649;BMP180;59492;45.638;11.714;2022-07-18T13:16:32;101537.20;;;28.30
71649;BMP180;59492;45.638;11.714;2022-07-18T13:19:01;101539.20;;;28.30
71649;BMP180;59492;45.638;11.714;2022-07-18T13:21:31;101535.40;;;28.30
71649;BMP180;59492;45.638;11.714;2022-07-18T13:23:58;101532.00;;;28.30
71649;BMP180;59492;45.638;11.714;2022-07-18T13:26:25;101529.40;;;28.30
71649;BMP180;59492;45.638;11.714;2022-07-18T13:28:52;101524.80;;;28.30
71649;BMP180;59492;45.638;11.714;2022-07-18T13:31:19;101521.20;;;28.30
71649;BMP180;59492;45.638;11.714;2022-07-18T13:33:46;101516.60;;;28.30
71649;BMP180;59492;45.638;11.714;2022-07-18T13:36:15;101516.60;;;28.30
71649;BMP180;59492;45.638;11.714;2022-07-18T13:38:41;101516.40;;;28.30
71649;BMP180;59492;45.638;11.714;2022-07-18T13:41:11;101513.20;;;28.30
71649;BMP180;59492;45.638;11.714;2022-07-18T13:43:45;101508.80;;;28.30
71649;BMP180;59492;45.638;11.714;2022-07-18T13:46:21;101507.80;;;28.28
71649;BMP180;59492;45.638;11.714;2022-07-18T13:48:46;101506.20;;;28.30
71649;BMP180;59492;45.638;11.714;2022-07-18T13:51:13;101507.00;;;28.30
71649;BMP180;59492;45.638;11.714;2022-07-18T13:53:42;101505.00;;;28.30
71649;BMP180;59492;45.638;11.714;2022-07-18T13:56:11;101499.80;;;28.28
71649;BMP180;59492;45.638;11.714;2022-07-18T13:58:38;101497.00;;;28.28
71649;BMP180;59492;45.638;11.714;2022-07-18T14:01:04;101498.60;;;28.28
71649;BMP180;59492;45.638;11.714;2022-07-18T14:03:29;101496.60;;;28.24
71649;BMP180;59492;45.638;11.714;2022-07-18T14:05:55;101489.00;;;28.26
71649;BMP180;59492;45.638;11.714;2022-07-18T14:08:20;101486.80;;;28.26
71649;BMP180;59492;45.638;11.714;2022-07-18T14:10:46;101487.20;;;28.26
71649;BMP180;59492;45.638;11.714;2022-07-18T14:13:12;101489.20;;;28.24
71649;BMP180;59492;45.638;11.714;2022-07-18T14:15:37;101485.80;;;28.20
71649;BMP180;59492;45.638;11.714;2022-07-18T14:18:03;101484.40;;;28.20
71649;BMP180;59492;45.638;11.714;2022-07-18T14:20:31;101478.60;;;28.20
71649;BMP180;59492;45.638;11.714;2022-07-18T14:22:57;101478.20;;;28.20
71649;BMP180;59492;45.638;11.714;2022-07-18T14:25:23;101479.60;;;28.20
71649;BMP180;59492;45.638;11.714;2022-07-18T14:27:49;101478.40;;;28.20
71649;BMP180;59492;45.638;11.714;2022-07-18T14:30:15;101476.00;;;28.20
71649;BMP180;59492;45.638;11.714;2022-07-18T14:32:43;101474.00;;;28.20